Taunton 2W

41° 53' 56"N, 71° 08' 19"W, Elevation 50 ft.
Eastern Time

Hourly observations for the last 72 hours

Date Time Temperature (°F) Humi-
dity

(%)
Wind
(mph)
Pressure Rain (in) Sun
(W/m2)
UV ET
(in)
Air Dew 6 Hour 1 Hr 3 Hr 6 Hr Day
Alt
(in)
Sea
Level

(mb)
Max Min
17 05:00 33.6 32.6 96 WSW 1 G 2 29.94 1014.1 0.00 0 0.0 0.000
17 04:00 34.3 33.0 95 Calm 29.96 1014.5 0.00 0 0.0 0.000
17 03:00 35.6 34.3 95 Calm 29.97 1014.9 0.00 0 0.0 0.000
17 02:00 36.7 35.4 42.0 36.7 95 Calm 29.98 1015.2 0.00 0 0.0 0.000
17 01:00 38.0 36.7 95 WSW 1 G 2 29.99 1015.6 0.00 0 0.0 0.000
17 00:00 39.0 37.7 95 Calm 30.00 1015.9 0.21 0 0.0 0.112
16 23:00 39.5 37.9 94 WSW 1 G 2 30.01 1016.3 0.21 0 0.0 0.112
16 22:00 40.5 38.4 92 WSW 1 G 3 30.01 1016.3 0.21 0 0.0 0.112
16 21:00 41.2 39.3 93 WSW 2 G 5 30.01 1016.4 0.21 0 0.0 0.112
16 20:00 40.8 39.2 57.8 40.7 94 Calm 30.00 1015.8 0.21 0 0.0 0.112
16 19:00 42.5 40.1 91 WSW 0 G 3 30.00 1015.9 0.21 0 0.0 0.112
16 18:00 46.8 41.9 83 Calm 29.97 1015.1 0.21 0 0.0 0.111
16 17:00 54.1 38.3 55 WSW 2 G 7 29.97 1014.9 0.21 139 0.0 0.106
16 16:00 57.4 37.9 48 WNW 6 G 14 29.98 1015.3 0.21 318 0.8 0.095
16 15:00 57.4 39.9 52 W 7 G 15 29.98 1015.1 0.21 476 1.7 0.082
16 14:00 57.2 38.2 57.3 44.3 49 W 8 G 13 29.98 1015.3 0.21 543 2.6 0.068
16 13:00 56.1 37.2 49 WSW 7 G 15 30.00 1015.9 0.21 687 3.3 0.053
16 12:00 55.4 42.2 61 WNW 7 G 12 30.02 1016.7 0.21 504 3.2 0.039
16 11:00 50.6 36.4 58 W 9 G 15 30.03 1017.1 0.21 441 2.2 0.029
16 10:00 50.1 36.8 60 WNW 7 G 19 30.04 1017.2 0.21 533 1.7 0.019
16 09:00 47.7 35.7 63 WNW 7 G 15 30.04 1017.2 0.21 364 0.8 0.013
16 08:00 44.3 34.0 56.0 43.6 67 W 4 G 9 30.02 1016.7 0.02 0.21 81 0.0 0.011
16 07:00 44.9 31.9 60 W 6 G 12 29.99 1015.6 0.21 0 0.0 0.009
16 06:00 46.5 31.7 56 WNW 6 G 18 29.96 1014.5 0.21 0 0.0 0.006
16 05:00 49.7 32.8 52 NW 14 G 30 29.92 1013.3 0.02 0.21 0 0.0 0.004
16 04:00 52.3 46.0 79 WNW 8 G 17 29.85 1011.0 0.21 0 0.0 0.003
16 03:00 53.6 50.7 90 WNW 8 G 13 29.83 1010.1 0.02 0.21 0 0.0 0.002
16 02:00 56.0 53.1 68.4 55.9 90 WNW 12 G 24 29.80 1009.3 0.18 0.19 0.20 0.19 0 0.0 0.001
16 01:00 68.3 64.3 87 W 8 G 24 29.72 1006.3 0.01 0.01 0 0.0 0.000
16 00:00 67.3 64.6 91 SSW 7 G 13 29.72 1006.3 0.01 0 0.0 0.019
15 23:00 67.4 65.0 92 SSW 10 G 20 29.74 1007.1 0.01 0.01 0.01 0 0.0 0.018
15 22:00 66.8 64.1 91 SSW 11 G 18 29.75 1007.7 0.00 0 0.0 0.017
15 21:00 65.9 63.8 93 SSW 7 G 19 29.78 1008.5 0.00 0 0.0 0.016
15 20:00 65.4 63.9 65.5 60.8 95 SSW 6 G 15 29.79 1009.0 0.00 0 0.0 0.016
15 19:00 64.9 63.4 95 S 8 G 14 29.81 1009.6 0.00 0 0.0 0.016
15 18:00 64.5 63.3 96 S 8 G 18 29.86 1011.4 0.00 0 0.0 0.015
15 17:00 63.5 62.3 96 SSW 10 G 16 29.88 1012.0 0.00 21 0.0 0.014
15 16:00 61.9 60.5 95 SSE 5 G 12 29.91 1013.0 0.00 60 0.0 0.013
15 15:00 60.9 58.6 92 S 4 G 13 29.96 1014.7 0.00 63 0.0 0.011
15 14:00 61.1 57.2 61.2 36.8 87 S 2 G 16 29.99 1015.7 0.00 86 0.6 0.009
15 13:00 59.1 57.1 93 SSE 5 G 12 30.02 1016.6 0.00 26 0.0 0.007
15 12:00 57.0 55.9 96 SE 3 G 8 30.06 1018.1 0.00 77 0.6 0.004
15 11:00 51.6 50.8 97 ESE 0 G 2 30.11 1019.8 0.00 60 0.0 0.002
15 10:00 45.7 44.9 97 SW 0 G 2 30.13 1020.4 0.00 40 0.0 0.001
15 09:00 42.2 41.4 97 Calm 30.15 1021.1 0.00 46 0.0 0.000
15 08:00 36.8 35.8 36.8 34.0 96 Calm 30.16 1021.5 0.00 58 0.0 0.000
15 07:00 34.3 33.3 96 Calm 30.17 1021.7 0.00 5 0.0 0.000
15 06:00 34.3 33.0 95 Calm 30.18 1022.0 0.00 0 0.0 0.000
15 05:00 34.3 33.0 95 Calm 30.18 1022.0 0.00 0 0.0 0.000
15 04:00 34.1 32.8 95 Calm 30.19 1022.4 0.00 0 0.0 0.000
15 03:00 34.2 32.9 95 Calm 30.19 1022.5 0.00 0 0.0 0.000
15 02:00 34.9 33.6 42.4 34.9 95 Calm 30.20 1022.7 0.00 0 0.0 0.000
15 01:00 35.8 34.5 95 Calm 30.20 1022.8 0.00 0 0.0 0.000
15 00:00 36.9 35.6 95 Calm 30.20 1022.9 0.00 0 0.0 0.067
14 23:00 37.7 36.4 95 Calm 30.20 1022.8 0.00 0 0.0 0.067
14 22:00 38.6 37.3 95 Calm 30.21 1023.0 0.00 0 0.0 0.067
14 21:00 40.3 39.0 95 Calm 30.20 1022.8 0.00 0 0.0 0.067
14 20:00 42.4 40.8 57.5 42.4 94 Calm 30.19 1022.4 0.00 0 0.0 0.067
14 19:00 45.6 43.4 92 Calm 30.18 1022.1 0.00 0 0.0 0.067
14 18:00 50.7 46.0 84 Calm 30.17 1021.8 0.00 5 0.0 0.066
14 17:00 55.1 45.1 69 WSW 2 G 5 30.17 1021.6 0.00 83 0.0 0.061
14 16:00 55.5 45.1 68 W 4 G 8 30.17 1021.6 0.00 153 0.7 0.056
14 15:00 56.1 44.5 65 W 5 G 12 30.17 1021.6 0.00 199 1.1 0.047
14 14:00 57.3 43.1 57.8 39.1 59 SSW 9 G 15 30.16 1021.5 0.00 693 3.1 0.036
14 13:00 54.9 41.3 60 WSW 5 G 13 30.18 1022.0 0.00 371 2.4 0.027
14 12:00 54.4 42.5 64 W 2 G 9 30.19 1022.4 0.00 459 2.6 0.017
14 11:00 54.2 42.7 65 WNW 5 G 10 30.19 1022.4 0.00 705 2.8 0.007
14 10:00 48.8 44.5 85 NW 5 G 7 30.19 1022.2 0.00 306 1.3 0.003
14 09:00 44.5 42.0 91 NW 3 G 8 30.18 1022.2 0.00 148 0.5 0.001
14 08:00 39.2 37.9 39.9 37.9 95 W 0 G 2 30.17 1021.5 0.00 56 0.0 0.000
14 07:00 37.9 36.6 95 W 1 G 4 30.15 1021.0 0.00 7 0.0 0.000
14 06:00 38.7 37.1 94 W 2 G 5 30.13 1020.4 0.00 0 0.0 0.000

Data generated by WxSolution Version 1.9.1.7, Build 2018.10.14.